createdAt,value
2022-12-14T00:01:34.859Z,-6.90
2022-12-14T00:04:01.548Z,-6.86
2022-12-14T00:06:31.015Z,-6.92
2022-12-14T00:08:59.969Z,-6.85
2022-12-14T00:11:27.893Z,-6.87
2022-12-14T00:13:59.694Z,-6.85
2022-12-14T00:16:30.971Z,-6.89
2022-12-14T00:18:59.879Z,-6.92
2022-12-14T00:21:27.466Z,-6.84
2022-12-14T00:23:54.939Z,-6.81
2022-12-14T00:26:24.866Z,-6.79
2022-12-14T00:28:53.432Z,-6.69
2022-12-14T00:31:21.461Z,-6.59
2022-12-14T00:33:48.733Z,-6.59
2022-12-14T00:36:15.424Z,-6.62
2022-12-14T00:38:42.817Z,-6.58
2022-12-14T00:41:10.769Z,-6.56
2022-12-14T00:43:38.176Z,-6.67
2022-12-14T00:46:04.964Z,-6.76
2022-12-14T00:48:32.349Z,-6.78
2022-12-14T00:50:59.436Z,-6.76
2022-12-14T00:53:26.484Z,-6.84
2022-12-14T00:55:53.294Z,-6.81
2022-12-14T00:58:23.052Z,-6.76
2022-12-14T01:01:01.908Z,-6.75
2022-12-14T01:03:29.109Z,-6.75
2022-12-14T01:05:56.454Z,-6.70
2022-12-14T01:08:23.683Z,-6.67
2022-12-14T01:10:50.990Z,-6.62
2022-12-14T01:13:18.081Z,-6.66
2022-12-14T01:15:44.882Z,-6.67
2022-12-14T01:18:11.674Z,-6.70
2022-12-14T01:20:38.296Z,-6.71
2022-12-14T01:23:04.958Z,-6.73
2022-12-14T01:25:31.705Z,-6.75
2022-12-14T01:27:58.385Z,-6.74
2022-12-14T01:30:25.090Z,-6.77
2022-12-14T01:32:51.766Z,-6.78
2022-12-14T01:35:18.460Z,-6.76
2022-12-14T01:37:45.172Z,-6.79
2022-12-14T01:40:15.668Z,-6.79
2022-12-14T01:42:42.330Z,-6.76
2022-12-14T01:45:22.288Z,-6.69
2022-12-14T01:47:55.974Z,-6.70
2022-12-14T01:50:26.326Z,-6.70
2022-12-14T01:52:57.790Z,-6.81
2022-12-14T01:55:34.373Z,-6.78
2022-12-14T01:58:15.387Z,-6.76
2022-12-14T02:00:43.668Z,-6.77
2022-12-14T02:03:15.026Z,-6.75
2022-12-14T02:05:50.662Z,-6.77
2022-12-14T02:08:19.406Z,-6.78
2022-12-14T02:10:47.370Z,-6.73
2022-12-14T02:13:25.905Z,-6.80
2022-12-14T02:15:53.297Z,-6.79
2022-12-14T02:18:26.284Z,-6.75
2022-12-14T02:21:14.418Z,-6.75
2022-12-14T02:23:53.507Z,-6.75
2022-12-14T02:26:52.192Z,-6.75
2022-12-14T02:29:46.050Z,-6.71
2022-12-14T02:32:33.958Z,-6.74
2022-12-14T02:35:37.708Z,-6.76
2022-12-14T02:38:25.800Z,-6.76
2022-12-14T02:41:27.570Z,-6.69
2022-12-14T02:44:06.713Z,-6.75
2022-12-14T02:46:50.657Z,-6.73
2022-12-14T02:49:42.399Z,-6.74
2022-12-14T02:52:31.656Z,-6.77
2022-12-14T02:55:05.496Z,-6.78
2022-12-14T02:57:50.214Z,-6.70
2022-12-14T03:00:17.032Z,-6.66
2022-12-14T03:02:45.604Z,-6.66
2022-12-14T03:05:12.647Z,-6.68
2022-12-14T03:07:48.624Z,-6.66
2022-12-14T03:10:34.222Z,-6.70
2022-12-14T03:13:34.736Z,-6.71
2022-12-14T03:16:08.055Z,-6.74
2022-12-14T03:18:42.887Z,-6.66
2022-12-14T03:21:13.641Z,-6.69
2022-12-14T03:23:43.714Z,-6.69
2022-12-14T03:26:26.471Z,-6.65
2022-12-14T03:28:56.659Z,-6.68
2022-12-14T03:31:40.003Z,-6.66
2022-12-14T03:34:13.154Z,-6.68
2022-12-14T03:36:59.294Z,-6.61
2022-12-14T03:39:32.095Z,-6.67
2022-12-14T03:42:26.531Z,-6.60
2022-12-14T03:45:30.481Z,-6.62
2022-12-14T03:48:35.141Z,-6.62
2022-12-14T03:51:18.437Z,-6.55
2022-12-14T03:54:21.237Z,-6.52
2022-12-14T03:56:53.214Z,-6.46
2022-12-14T03:59:48.673Z,-6.44
2022-12-14T04:02:26.276Z,-6.47
2022-12-14T04:05:06.093Z,-6.47
2022-12-14T04:07:46.521Z,-6.50
2022-12-14T04:10:36.539Z,-6.49
2022-12-14T04:13:27.321Z,-6.51
2022-12-14T04:16:14.639Z,-6.52
2022-12-14T04:19:00.626Z,-6.47
2022-12-14T04:21:43.058Z,-6.43
2022-12-14T04:24:41.461Z,-6.43
2022-12-14T04:27:20.531Z,-6.48
2022-12-14T04:29:56.775Z,-6.52
2022-12-14T04:32:41.706Z,-6.46
2022-12-14T04:35:39.790Z,-6.42
2022-12-14T04:38:22.181Z,-6.45
2022-12-14T04:41:11.591Z,-6.46
2022-12-14T04:43:43.875Z,-6.45
2022-12-14T04:46:41.104Z,-6.43
2022-12-14T04:49:12.630Z,-6.48
2022-12-14T04:52:05.439Z,-6.48
2022-12-14T04:54:40.290Z,-6.46
2022-12-14T04:57:12.249Z,-6.43
2022-12-14T04:59:43.858Z,-6.46
2022-12-14T05:02:40.889Z,-6.40
2022-12-14T05:05:25.646Z,-6.43
2022-12-14T05:08:14.213Z,-6.41
2022-12-14T05:10:44.920Z,-6.45
2022-12-14T05:13:24.723Z,-6.41
2022-12-14T05:15:55.399Z,-6.38
2022-12-14T05:18:23.225Z,-6.39
2022-12-14T05:20:50.669Z,-6.34
2022-12-14T05:23:17.609Z,-6.33
2022-12-14T05:25:44.406Z,-6.33
2022-12-14T05:28:15.916Z,-6.40
2022-12-14T05:30:42.732Z,-6.35
2022-12-14T05:33:19.894Z,-6.36
2022-12-14T05:35:46.877Z,-6.44
2022-12-14T05:38:13.550Z,-6.41
2022-12-14T05:40:40.275Z,-6.42
2022-12-14T05:43:08.864Z,-6.44
2022-12-14T05:45:35.506Z,-6.36
2022-12-14T05:48:02.400Z,-6.32
2022-12-14T05:50:29.034Z,-6.33
2022-12-14T05:52:55.985Z,-6.33
2022-12-14T05:55:22.742Z,-6.36
2022-12-14T05:57:49.392Z,-6.37
2022-12-14T06:00:16.186Z,-6.35
2022-12-14T06:02:43.019Z,-6.32
2022-12-14T06:05:09.754Z,-6.32
2022-12-14T06:07:36.392Z,-6.32
2022-12-14T06:10:03.260Z,-6.32
2022-12-14T06:12:30.561Z,-6.33
2022-12-14T06:14:57.189Z,-6.38
2022-12-14T06:17:23.872Z,-6.33
2022-12-14T06:19:50.669Z,-6.27
2022-12-14T06:22:17.968Z,-6.30
2022-12-14T06:24:44.630Z,-6.25
2022-12-14T06:27:11.269Z,-6.24
2022-12-14T06:29:37.963Z,-6.22
2022-12-14T06:32:04.843Z,-6.26
2022-12-14T06:34:35.388Z,-6.25
2022-12-14T06:37:06.296Z,-6.20
2022-12-14T06:39:33.199Z,-6.22
2022-12-14T06:41:59.853Z,-6.24
2022-12-14T06:44:26.622Z,-6.17
2022-12-14T06:46:53.357Z,-6.15
2022-12-14T06:49:20.118Z,-6.17
2022-12-14T06:51:46.799Z,-6.19
2022-12-14T06:54:15.150Z,-6.12
2022-12-14T06:56:43.596Z,-6.13
2022-12-14T06:59:10.710Z,-6.13
2022-12-14T07:01:38.547Z,-6.13
2022-12-14T07:04:06.375Z,-6.11
2022-12-14T07:06:36.727Z,-6.12
2022-12-14T07:09:04.969Z,-6.14
2022-12-14T07:11:32.050Z,-6.14
2022-12-14T07:14:05.986Z,-6.18
2022-12-14T07:16:34.902Z,-6.08
2022-12-14T07:19:01.656Z,-6.08
2022-12-14T07:21:28.325Z,-6.02
2022-12-14T07:23:55.183Z,-6.09
2022-12-14T07:26:27.618Z,-6.12
2022-12-14T07:28:54.704Z,-6.10
2022-12-14T07:31:25.938Z,-6.07
2022-12-14T07:33:54.902Z,-6.08
2022-12-14T07:36:22.961Z,-6.01
2022-12-14T07:38:50.852Z,-6.02
2022-12-14T07:41:24.083Z,-6.04
2022-12-14T07:43:51.917Z,-6.01
2022-12-14T07:46:21.496Z,-6.00
2022-12-14T07:48:50.668Z,-5.98
2022-12-14T07:51:19.652Z,-6.06
2022-12-14T07:53:46.394Z,-6.09
2022-12-14T07:56:19.527Z,-6.08
2022-12-14T07:58:46.479Z,-6.09
2022-12-14T08:01:19.366Z,-6.00
2022-12-14T08:03:57.854Z,-6.02
2022-12-14T08:06:26.734Z,-6.02
2022-12-14T08:08:54.299Z,-5.99
2022-12-14T08:11:22.359Z,-5.97
2022-12-14T08:14:07.026Z,-6.02
2022-12-14T08:16:33.936Z,-6.02
2022-12-14T08:19:01.333Z,-5.98
2022-12-14T08:21:28.319Z,-5.90
2022-12-14T08:23:57.186Z,-5.90
2022-12-14T08:26:30.141Z,-5.90
2022-12-14T08:29:00.123Z,-5.96
2022-12-14T08:31:28.360Z,-5.89
2022-12-14T08:33:55.525Z,-5.89
2022-12-14T08:36:28.029Z,-5.84
2022-12-14T08:38:56.597Z,-5.87
2022-12-14T08:41:24.966Z,-5.81
2022-12-14T08:43:56.701Z,-5.74
2022-12-14T08:46:24.766Z,-5.72
2022-12-14T08:48:53.352Z,-5.67
2022-12-14T08:51:20.906Z,-5.69
2022-12-14T08:53:48.127Z,-5.68
2022-12-14T08:56:18.672Z,-5.65
2022-12-14T08:58:45.509Z,-5.67
2022-12-14T09:01:16.016Z,-5.61
2022-12-14T09:03:44.720Z,-5.60
2022-12-14T09:06:15.372Z,-5.61
2022-12-14T09:08:42.397Z,-5.58
2022-12-14T09:11:12.918Z,-5.57
2022-12-14T09:13:40.236Z,-5.53
2022-12-14T09:16:10.927Z,-5.43
2022-12-14T09:18:37.826Z,-5.41
2022-12-14T09:21:04.714Z,-5.38
2022-12-14T09:23:33.500Z,-5.37
2022-12-14T09:26:07.136Z,-5.36
2022-12-14T09:28:36.690Z,-5.29
2022-12-14T09:31:06.900Z,-5.25
2022-12-14T09:33:34.403Z,-5.24
2022-12-14T09:36:08.380Z,-5.21
2022-12-14T09:38:36.655Z,-5.22
2022-12-14T09:41:07.924Z,-5.21
2022-12-14T09:43:43.575Z,-5.18
2022-12-14T09:46:24.390Z,-5.14
2022-12-14T09:48:52.696Z,-5.08
2022-12-14T09:51:22.670Z,-5.02
2022-12-14T09:54:02.165Z,-5.03
2022-12-14T09:56:29.419Z,-4.97
2022-12-14T09:58:58.551Z,-4.91
2022-12-14T10:01:55.541Z,-5.00
2022-12-14T10:04:47.843Z,-5.11
2022-12-14T10:07:34.808Z,-5.00
2022-12-14T10:10:13.838Z,-5.00
2022-12-14T10:12:40.450Z,-4.95
2022-12-14T10:15:44.777Z,-4.85
2022-12-14T10:21:33.275Z,-4.80
2022-12-14T10:24:04.725Z,-4.74
2022-12-14T10:26:53.779Z,-4.66
2022-12-14T10:30:04.677Z,-4.58
2022-12-14T10:32:39.565Z,-4.51
2022-12-14T10:35:20.614Z,-4.56
2022-12-14T10:37:53.650Z,-4.50
2022-12-14T10:40:33.668Z,-4.58
2022-12-14T10:43:29.958Z,-4.46
2022-12-14T10:46:22.395Z,-4.38
2022-12-14T10:49:04.258Z,-4.32
2022-12-14T10:51:37.726Z,-4.32
2022-12-14T10:54:30.537Z,-4.23
2022-12-14T10:56:57.214Z,-4.19
2022-12-14T10:59:39.783Z,-4.12
2022-12-14T11:02:17.006Z,-4.13
2022-12-14T11:05:00.512Z,-4.09
2022-12-14T11:07:39.396Z,-4.00
2022-12-14T11:10:22.872Z,-4.01
2022-12-14T11:12:55.536Z,-4.01
2022-12-14T11:15:38.119Z,-4.00
2022-12-14T11:18:06.918Z,-3.93
2022-12-14T11:20:34.406Z,-3.85
2022-12-14T11:23:17.680Z,-3.76
2022-12-14T11:25:50.806Z,-3.78
2022-12-14T11:28:39.807Z,-3.84
2022-12-14T11:31:27.902Z,-3.80
2022-12-14T11:33:57.005Z,-3.72
2022-12-14T11:36:38.562Z,-3.67
2022-12-14T11:39:14.270Z,-3.64
2022-12-14T11:41:47.323Z,-3.66
2022-12-14T11:44:17.078Z,-3.66
2022-12-14T11:46:58.029Z,-3.56
2022-12-14T11:49:37.733Z,-3.53
2022-12-14T11:52:04.350Z,-3.51
2022-12-14T11:54:39.130Z,-3.54
2022-12-14T11:57:10.513Z,-3.51
2022-12-14T11:59:42.740Z,-3.49
2022-12-14T12:02:16.992Z,-3.44
2022-12-14T12:04:47.741Z,-3.45
2022-12-14T12:07:36.339Z,-3.34
2022-12-14T12:10:14.735Z,-3.30
2022-12-14T12:13:01.024Z,-3.16
2022-12-14T12:15:41.059Z,-3.10
2022-12-14T12:18:35.713Z,-3.12
2022-12-14T12:21:02.272Z,-3.08
2022-12-14T12:23:36.197Z,-3.03
2022-12-14T12:26:13.001Z,-3.00
2022-12-14T12:28:43.788Z,-2.96
2022-12-14T12:31:19.401Z,-2.86
2022-12-14T12:34:17.179Z,-2.73
2022-12-14T12:37:17.092Z,-2.73
2022-12-14T12:39:35.636Z,-2.66
2022-12-14T12:42:20.686Z,-2.66
2022-12-14T12:45:21.623Z,-2.64
2022-12-14T12:47:54.797Z,-2.66
2022-12-14T12:50:26.236Z,-2.63
2022-12-14T12:52:57.809Z,-2.52
2022-12-14T12:55:30.867Z,-2.47
2022-12-14T12:58:01.695Z,-2.44
2022-12-14T13:00:30.575Z,-2.45
2022-12-14T13:03:25.106Z,-2.38
2022-12-14T13:05:55.505Z,-2.36
2022-12-14T13:08:37.262Z,-2.31
2022-12-14T13:11:26.254Z,-2.30
2022-12-14T13:14:02.789Z,-2.32
2022-12-14T13:16:35.036Z,-2.37
2022-12-14T13:19:51.716Z,-2.39
2022-12-14T13:22:31.952Z,-2.46
2022-12-14T13:25:06.584Z,-2.42
2022-12-14T13:28:05.799Z,-2.40
2022-12-14T13:30:43.331Z,-2.40
2022-12-14T13:33:51.189Z,-2.39
2022-12-14T13:36:36.962Z,-2.33
2022-12-14T13:39:26.832Z,-2.32
2022-12-14T13:41:59.594Z,-2.26
2022-12-14T13:45:08.473Z,-2.19
2022-12-14T13:47:45.963Z,-2.11
2022-12-14T13:50:39.827Z,-2.04
2022-12-14T13:53:31.570Z,-2.00
2022-12-14T13:56:00.571Z,-2.09
2022-12-14T13:58:44.570Z,-2.08
2022-12-14T14:01:35.729Z,-2.01
2022-12-14T14:04:11.550Z,-1.91
2022-12-14T14:06:45.641Z,-1.94
2022-12-14T14:09:31.365Z,-1.94
2022-12-14T14:12:25.888Z,-1.94
2022-12-14T14:15:00.458Z,-1.97
2022-12-14T14:17:46.666Z,-1.97
2022-12-14T14:20:31.746Z,-1.89
2022-12-14T14:23:14.264Z,-1.85
2022-12-14T14:25:46.711Z,-1.87
2022-12-14T14:28:29.667Z,-1.96
2022-12-14T14:30:58.631Z,-1.94
2022-12-14T14:33:47.684Z,-1.98
2022-12-14T14:36:33.271Z,-1.96
2022-12-14T14:39:02.410Z,-1.97
2022-12-14T14:41:36.577Z,-1.95
2022-12-14T14:44:18.527Z,-1.92
2022-12-14T14:46:49.784Z,-1.85
2022-12-14T14:49:26.179Z,-1.86
2022-12-14T14:51:52.959Z,-1.85
2022-12-14T14:57:33.381Z,-1.86
2022-12-14T15:00:06.428Z,-1.89
2022-12-14T15:02:42.168Z,-1.90
2022-12-14T15:08:34.506Z,-1.73
2022-12-14T15:11:05.357Z,-1.68
2022-12-14T15:13:57.705Z,-1.67
2022-12-14T15:16:41.828Z,-1.69
2022-12-14T15:19:27.889Z,-1.69
2022-12-14T15:21:58.386Z,-1.69
2022-12-14T15:24:26.124Z,-1.75
2022-12-14T15:26:53.777Z,-1.76
2022-12-14T15:29:28.275Z,-1.75
2022-12-14T15:31:59.967Z,-1.69
2022-12-14T15:34:27.659Z,-1.68
2022-12-14T15:36:55.258Z,-1.68
2022-12-14T15:40:00.433Z,-1.65
2022-12-14T15:42:27.774Z,-1.59
2022-12-14T15:44:56.269Z,-1.50
2022-12-14T15:47:30.773Z,-1.46
2022-12-14T15:50:15.945Z,-1.41
2022-12-14T15:52:44.446Z,-1.39
2022-12-14T15:55:30.953Z,-1.40
2022-12-14T15:58:01.061Z,-1.41
2022-12-14T16:00:27.876Z,-1.45
2022-12-14T16:02:54.990Z,-1.43
2022-12-14T16:05:22.558Z,-1.43
2022-12-14T16:07:58.553Z,-1.41
2022-12-14T16:10:33.019Z,-1.46
2022-12-14T16:13:23.198Z,-1.48
2022-12-14T16:15:50.702Z,-1.48
2022-12-14T16:18:18.559Z,-1.50
2022-12-14T16:20:54.705Z,-1.53
2022-12-14T16:23:24.072Z,-1.55
2022-12-14T16:26:20.765Z,-1.61
2022-12-14T16:28:48.037Z,-1.64
2022-12-14T16:31:20.477Z,-1.66
2022-12-14T16:34:05.375Z,-1.72
2022-12-14T16:36:34.635Z,-1.66
2022-12-14T16:39:05.749Z,-1.64
2022-12-14T16:41:41.569Z,-1.66
2022-12-14T16:44:19.808Z,-1.69
2022-12-14T16:47:23.996Z,-1.66
2022-12-14T16:49:55.177Z,-1.64
2022-12-14T16:52:34.317Z,-1.66
2022-12-14T16:55:13.248Z,-1.66
2022-12-14T16:57:49.192Z,-1.72
2022-12-14T17:00:37.765Z,-1.73
2022-12-14T17:03:20.217Z,-1.81
2022-12-14T17:06:08.710Z,-1.86
2022-12-14T17:08:35.372Z,-1.88
2022-12-14T17:11:02.336Z,-1.91
2022-12-14T17:13:29.665Z,-1.93
2022-12-14T17:16:00.213Z,-1.95
2022-12-14T17:18:32.026Z,-2.04
2022-12-14T17:20:59.777Z,-2.03
2022-12-14T17:23:26.717Z,-2.03
2022-12-14T17:25:53.556Z,-2.00
2022-12-14T17:28:23.105Z,-1.99
2022-12-14T17:30:51.191Z,-1.96
2022-12-14T17:33:18.062Z,-1.99
2022-12-14T17:35:44.743Z,-2.03
2022-12-14T17:38:14.868Z,-2.09
2022-12-14T17:40:42.394Z,-2.11
2022-12-14T17:43:13.444Z,-2.12
2022-12-14T17:45:40.518Z,-2.14
2022-12-14T17:48:12.994Z,-2.17
2022-12-14T17:50:41.081Z,-2.17
2022-12-14T17:53:13.516Z,-2.19
2022-12-14T17:55:40.244Z,-2.22
2022-12-14T17:58:07.169Z,-2.25
2022-12-14T18:00:52.506Z,-2.30
2022-12-14T18:03:19.497Z,-2.31
2022-12-14T18:05:51.515Z,-2.32
2022-12-14T18:08:19.863Z,-2.34
2022-12-14T18:10:48.737Z,-2.35
2022-12-14T18:13:15.609Z,-2.38
2022-12-14T18:15:49.766Z,-2.36
2022-12-14T18:18:18.907Z,-2.36
2022-12-14T18:20:49.766Z,-2.38
2022-12-14T18:23:18.330Z,-2.39
2022-12-14T18:25:48.537Z,-2.32
2022-12-14T18:28:15.855Z,-2.29
2022-12-14T18:30:49.659Z,-2.34
2022-12-14T18:33:20.396Z,-2.35
2022-12-14T18:35:49.067Z,-2.38
2022-12-14T18:38:16.231Z,-2.35
2022-12-14T18:40:51.044Z,-2.34
2022-12-14T18:43:23.759Z,-2.41
2022-12-14T18:45:53.097Z,-2.44
2022-12-14T18:48:20.964Z,-2.44
2022-12-14T18:50:49.658Z,-2.54
2022-12-14T18:53:21.592Z,-2.61
2022-12-14T18:55:49.459Z,-2.61
2022-12-14T18:58:22.160Z,-2.62
2022-12-14T19:00:54.622Z,-2.61
2022-12-14T19:03:22.302Z,-2.66
2022-12-14T19:05:49.252Z,-2.65
2022-12-14T19:08:15.925Z,-2.68
2022-12-14T19:10:45.861Z,-2.72
2022-12-14T19:13:20.340Z,-2.72
2022-12-14T19:15:51.846Z,-2.79
2022-12-14T19:18:18.927Z,-2.79
2022-12-14T19:20:45.589Z,-2.81
2022-12-14T19:23:17.603Z,-2.85
2022-12-14T19:25:44.926Z,-2.84
2022-12-14T19:28:30.706Z,-2.82
2022-12-14T19:30:59.027Z,-2.80
2022-12-14T19:33:26.855Z,-2.82
2022-12-14T19:35:53.813Z,-2.79
2022-12-14T19:38:20.593Z,-2.84
2022-12-14T19:40:59.830Z,-2.93
2022-12-14T19:43:26.957Z,-2.94
2022-12-14T19:45:53.654Z,-2.93
2022-12-14T19:48:20.529Z,-2.92
2022-12-14T19:50:49.391Z,-2.95
2022-12-14T19:53:21.621Z,-2.95
2022-12-14T19:55:52.598Z,-2.94
2022-12-14T19:58:22.034Z,-2.92
2022-12-14T20:00:50.121Z,-2.91
2022-12-14T20:03:17.629Z,-2.94
2022-12-14T20:05:58.769Z,-2.99
2022-12-14T20:08:27.869Z,-3.04
2022-12-14T20:10:55.241Z,-3.09
2022-12-14T20:13:23.418Z,-3.13
2022-12-14T20:15:59.817Z,-3.15
2022-12-14T20:18:27.200Z,-3.18
2022-12-14T20:21:01.781Z,-3.14
2022-12-14T20:23:29.047Z,-3.15
2022-12-14T20:26:01.139Z,-3.19
2022-12-14T20:28:28.084Z,-3.19
2022-12-14T20:30:54.822Z,-3.14
2022-12-14T20:33:26.439Z,-3.14
2022-12-14T20:35:56.671Z,-3.08
2022-12-14T20:38:23.346Z,-3.14
2022-12-14T20:40:50.258Z,-3.11
2022-12-14T20:43:16.981Z,-3.04
2022-12-14T20:45:46.703Z,-3.07
2022-12-14T20:48:13.722Z,-3.01
2022-12-14T20:50:42.630Z,-3.00
2022-12-14T20:53:09.342Z,-2.95
2022-12-14T20:55:36.225Z,-3.00
2022-12-14T20:58:02.908Z,-3.04
2022-12-14T21:00:29.741Z,-3.05
2022-12-14T21:02:56.736Z,-3.03
2022-12-14T21:05:23.623Z,-3.09
2022-12-14T21:07:50.361Z,-3.13
2022-12-14T21:10:17.133Z,-3.15
2022-12-14T21:12:44.594Z,-3.15
2022-12-14T21:15:11.316Z,-3.16
2022-12-14T21:17:39.160Z,-3.07
2022-12-14T21:20:06.347Z,-3.03
2022-12-14T21:22:35.289Z,-3.01
2022-12-14T21:25:04.186Z,-2.99
2022-12-14T21:27:32.911Z,-3.05
2022-12-14T21:30:03.397Z,-3.06
2022-12-14T21:32:30.231Z,-3.09
2022-12-14T21:34:57.054Z,-3.14
2022-12-14T21:37:24.173Z,-3.14
2022-12-14T21:39:54.317Z,-3.13
2022-12-14T21:42:24.046Z,-3.05
2022-12-14T21:44:52.862Z,-3.05
2022-12-14T21:47:26.894Z,-3.08
2022-12-14T21:49:54.890Z,-3.12
2022-12-14T21:52:30.497Z,-3.16
2022-12-14T21:54:59.257Z,-3.18
2022-12-14T21:57:49.655Z,-3.13
2022-12-14T22:00:18.220Z,-3.09
2022-12-14T22:02:45.008Z,-3.02
2022-12-14T22:05:11.849Z,-3.00
2022-12-14T22:07:38.629Z,-2.98
2022-12-14T22:10:05.855Z,-2.96
2022-12-14T22:12:33.113Z,-2.97
2022-12-14T22:15:00.378Z,-2.98
2022-12-14T22:17:27.115Z,-3.01
2022-12-14T22:19:55.190Z,-3.00
2022-12-14T22:22:22.532Z,-2.98
2022-12-14T22:24:51.287Z,-3.00
2022-12-14T22:27:19.203Z,-2.95
2022-12-14T22:29:45.875Z,-2.95
2022-12-14T22:32:13.528Z,-3.00
2022-12-14T22:34:40.299Z,-3.04
2022-12-14T22:37:06.972Z,-3.08
2022-12-14T22:39:33.641Z,-3.11
2022-12-14T22:42:00.310Z,-3.07
2022-12-14T22:44:27.085Z,-3.04
2022-12-14T22:46:53.767Z,-3.06
2022-12-14T22:49:20.441Z,-3.05
2022-12-14T22:51:47.610Z,-3.10
2022-12-14T22:54:22.436Z,-3.11
2022-12-14T22:57:00.346Z,-3.05
2022-12-14T22:59:36.457Z,-3.05
2022-12-14T23:02:03.912Z,-3.05
2022-12-14T23:04:31.064Z,-3.01
2022-12-14T23:06:57.733Z,-3.01
2022-12-14T23:09:43.079Z,-2.98
2022-12-14T23:12:28.447Z,-3.03
2022-12-14T23:15:13.772Z,-3.07
2022-12-14T23:17:59.171Z,-3.05
2022-12-14T23:20:44.431Z,-2.97
2022-12-14T23:23:30.170Z,-2.94
2022-12-14T23:26:20.441Z,-2.93
2022-12-14T23:29:05.730Z,-2.94
2022-12-14T23:31:51.298Z,-2.88
2022-12-14T23:34:36.686Z,-2.88
2022-12-14T23:37:21.942Z,-2.97
2022-12-14T23:40:07.457Z,-2.94
2022-12-14T23:42:52.766Z,-2.95
2022-12-14T23:45:38.648Z,-2.99
2022-12-14T23:48:23.889Z,-2.96
2022-12-14T23:51:09.252Z,-2.93
2022-12-14T23:53:54.624Z,-2.90
2022-12-14T23:56:40.243Z,-2.85
2022-12-14T23:59:31.531Z,-2.87
